Time;durP1;ratioP1;P1;durP2;ratioP2;P2;SDS_P1;SDS_P2;PMS_P1;PMS_P2;Temp;Humidity;BMP_temperature;BMP_pressure;BME280_temperature;BME280_humidity;BME280_pressure;Samples;Min_cycle;Max_cycle;Signal;HPM_P1;HPM_P2
2023/04/24 00:04:49;;;;;;;2.45;0.60;;;;;;;17.42;54.75;95722.47;10341119;28;20030;-29
2023/04/24 00:09:50;;;;;;;3.38;0.80;;;;;;;17.53;58.42;95740.06;10350792;28;20061;-29
2023/04/24 00:14:50;;;;;;;2.72;0.70;;;;;;;17.63;60.74;95716.31;10360156;28;20040;-29
2023/04/24 00:19:58;;;;;;;3.35;0.93;;;;;;;17.67;59.22;95725.56;10355755;28;20053;-29
2023/04/24 00:24:58;;;;;;;1.17;0.70;;;;;;;17.58;58.32;95726.50;10347564;28;20030;-29
2023/04/24 00:29:59;;;;;;;3.13;0.80;;;;;;;17.49;55.34;95715.66;10354866;28;20037;-29
2023/04/24 00:34:59;;;;;;;0.65;0.45;;;;;;;17.47;54.58;95732.53;10347335;28;20076;-29
2023/04/24 00:39:59;;;;;;;1.67;0.50;;;;;;;17.45;54.76;95731.72;10341927;28;20030;-29
2023/04/24 00:45:01;;;;;;;1.53;0.50;;;;;;;17.44;54.81;95725.00;10352456;28;20288;-29
2023/04/24 00:50:05;;;;;;;1.88;0.45;;;;;;;17.43;54.44;95725.84;10333653;28;20328;-27
2023/04/24 00:55:06;;;;;;;2.08;0.40;;;;;;;17.41;54.57;95733.44;10353063;28;20044;-29
2023/04/24 01:00:10;;;;;;;3.03;0.50;;;;;;;17.41;54.89;95730.09;10355798;28;20068;-29
2023/04/24 01:05:14;;;;;;;1.30;0.35;;;;;;;17.41;54.68;95725.03;10334256;28;20038;-30
2023/04/24 01:10:17;;;;;;;1.75;0.40;;;;;;;17.39;54.26;95722.53;10342098;28;20042;-29
2023/04/24 01:15:19;;;;;;;1.45;0.85;;;;;;;17.57;59.77;95718.94;10354806;28;20053;-29
2023/04/24 01:20:20;;;;;;;2.42;0.77;;;;;;;17.64;60.84;95721.38;10351729;28;20030;-29
2023/04/24 01:25:21;;;;;;;4.38;0.85;;;;;;;17.61;58.38;95723.94;10331452;28;20034;-29
2023/04/24 01:30:22;;;;;;;1.98;0.50;;;;;;;17.50;55.07;95715.63;10354533;28;20496;-29
2023/04/24 01:35:22;;;;;;;1.65;0.85;;;;;;;17.47;54.72;95704.72;10349817;28;20026;-29
2023/04/24 01:40:23;;;;;;;0.80;0.50;;;;;;;17.43;54.55;95703.94;10335013;28;20029;-29
2023/04/24 01:45:23;;;;;;;1.30;0.60;;;;;;;17.43;54.58;95698.03;10352897;28;20038;-29
2023/04/24 01:50:24;;;;;;;1.60;0.52;;;;;;;17.42;54.63;95691.28;10337421;28;20042;-30
2023/04/24 01:55:24;;;;;;;0.80;0.28;;;;;;;17.41;54.31;95687.09;10347108;28;20041;-29
2023/04/24 02:00:25;;;;;;;0.75;0.40;;;;;;;17.40;54.47;95703.94;10342205;28;20038;-29
2023/04/24 02:05:27;;;;;;;2.05;0.63;;;;;;;17.40;54.33;95693.00;10347964;28;20037;-29
2023/04/24 02:10:29;;;;;;;0.80;0.30;;;;;;;17.39;54.19;95694.69;10340027;28;20481;-29
2023/04/24 02:15:32;;;;;;;3.97;0.70;;;;;;;17.51;58.68;95701.31;10353424;28;20038;-29
2023/04/24 02:20:35;;;;;;;2.67;1.10;;;;;;;17.60;61.00;95701.19;10355373;28;20485;-29
2023/04/24 02:25:35;;;;;;;2.28;0.73;;;;;;;17.64;59.30;95702.81;10343597;28;20516;-29
2023/04/24 02:30:36;;;;;;;1.67;0.70;;;;;;;17.57;58.53;95696.16;10337331;28;20073;-29
2023/04/24 02:35:36;;;;;;;2.45;0.60;;;;;;;17.46;55.20;95701.34;10349847;28;20045;-30
2023/04/24 02:40:36;;;;;;;1.00;0.47;;;;;;;17.43;54.88;95692.97;10336923;28;20034;-29
2023/04/24 02:45:38;;;;;;;1.60;0.67;;;;;;;17.43;54.85;95700.56;10341510;28;20039;-30
2023/04/24 02:50:38;;;;;;;2.13;1.05;;;;;;;17.40;54.71;95687.94;10325728;28;20180;-29
2023/04/24 02:55:39;;;;;;;0.73;0.57;;;;;;;17.40;54.73;95701.41;10340278;28;20110;-29
2023/04/24 03:00:39;;;;;;;0.55;0.38;;;;;;;17.39;54.72;95703.97;10332341;28;20339;-29
2023/04/24 03:05:40;;;;;;;0.73;0.30;;;;;;;17.40;54.54;95703.94;10341119;28;20378;-29
2023/04/24 03:10:43;;;;;;;2.20;0.75;;;;;;;17.39;54.46;95681.19;10339003;28;20042;-29
2023/04/24 03:15:44;;;;;;;1.45;0.50;;;;;;;17.38;54.57;95685.44;10353385;28;20112;-30
2023/04/24 03:20:46;;;;;;;2.08;0.70;;;;;;;17.52;57.80;95703.81;10354310;28;20053;-29
2023/04/24 03:25:48;;;;;;;1.88;0.70;;;;;;;17.59;61.25;95704.56;10332077;28;20037;-29
2023/04/24 03:30:49;;;;;;;1.90;0.60;;;;;;;17.62;59.19;95707.06;10353131;28;20041;-29
2023/04/24 03:35:52;;;;;;;1.15;0.40;;;;;;;17.52;56.51;95708.88;10340360;28;20050;-29
2023/04/24 03:40:53;;;;;;;0.65;0.40;;;;;;;17.47;55.02;95724.94;10334574;28;20210;-29
2023/04/24 03:46:16;;;;;;;2.88;0.60;;;;;;;17.44;54.58;95715.72;10361822;28;20034;-29
2023/04/24 03:51:22;;;;;;;0.90;0.65;;;;;;;17.46;54.70;95720.75;10340732;28;20478;-29
2023/04/24 03:56:25;;;;;;;1.10;0.40;;;;;;;17.45;54.49;95721.59;10335735;28;20415;-29
2023/04/24 04:01:28;;;;;;;0.95;0.52;;;;;;;17.44;54.61;95725.00;10333303;28;20026;-30
2023/04/24 04:06:34;;;;;;;4.00;0.63;;;;;;;17.44;54.21;95725.00;10354163;28;20033;-29
2023/04/24 04:11:35;;;;;;;0.88;0.35;;;;;;;17.46;54.28;95738.47;10347134;28;20116;-29
2023/04/24 04:16:36;;;;;;;0.68;0.40;;;;;;;17.45;54.04;95755.34;10349029;28;20046;-30
2023/04/24 04:21:37;;;;;;;1.58;0.40;;;;;;;17.48;54.31;95759.53;10339238;28;20703;-29
2023/04/24 04:26:51;;;;;;;3.85;0.93;;;;;;;17.61;60.95;95774.56;10331116;28;20041;-29
2023/04/24 04:31:59;;;;;;;4.35;0.98;;;;;;;17.69;61.51;95790.50;10343935;28;20045;-30
2023/04/24 04:37:01;;;;;;;1.38;0.50;;;;;;;17.64;56.40;95798.97;10329379;28;20104;-29
2023/04/24 04:42:26;;;;;;;0.57;0.40;;;;;;;17.59;54.64;95796.50;10343725;28;20026;-30
2023/04/24 04:47:28;;;;;;;1.20;0.50;;;;;;;17.53;54.27;95790.69;10342473;28;20479;-29
2023/04/24 04:52:30;;;;;;;1.20;1.00;;;;;;;17.53;55.08;95810.91;10335535;28;20085;-29
2023/04/24 04:57:40;;;;;;;0.50;0.30;;;;;;;17.55;54.16;95816.78;10341457;28;20025;-29
2023/04/24 05:02:41;;;;;;;2.83;0.57;;;;;;;17.54;54.44;95817.66;10322261;28;20022;-29
2023/04/24 05:07:42;;;;;;;1.83;0.50;;;;;;;17.55;54.25;95814.25;10323953;28;20394;-30
2023/04/24 05:12:42;;;;;;;1.13;0.28;;;;;;;17.55;54.12;95819.31;10352170;28;20117;-29
2023/04/24 05:17:43;;;;;;;4.88;0.57;;;;;;;17.56;54.40;95838.75;10353491;28;20038;-29
2023/04/24 05:22:45;;;;;;;2.53;0.55;;;;;;;17.56;54.01;95846.34;10335010;28;20030;-30
2023/04/24 05:27:47;;;;;;;1.38;0.73;;;;;;;17.56;54.90;95851.41;10342730;28;20620;-29
2023/04/24 05:32:49;;;;;;;3.72;0.68;;;;;;;17.35;53.57;95857.47;10338672;28;20061;-29
2023/04/24 05:37:50;;;;;;;2.55;0.98;;;;;;;17.56;56.75;95864.06;10349877;28;20030;-30
2023/04/24 05:42:51;;;;;;;7.40;0.88;;;;;;;17.55;54.68;95885.13;10341350;28;20672;-29
2023/04/24 05:47:52;;;;;;;1.90;0.80;;;;;;;17.53;53.68;95882.63;10338783;28;20073;-30
2023/04/24 05:52:53;;;;;;;4.10;0.60;;;;;;;17.51;53.53;95889.38;10335079;28;20053;-30
2023/04/24 05:57:59;;;;;;;2.60;0.70;;;;;;;17.49;53.82;95885.22;10341026;28;20030;-29
2023/04/24 06:03:00;;;;;;;2.03;0.50;;;;;;;17.47;54.03;95891.94;10343487;28;20030;-29
2023/04/24 06:08:01;;;;;;;2.90;0.50;;;;;;;17.47;53.67;95912.19;10356777;28;20034;-34
2023/04/24 06:13:07;;;;;;;1.65;0.98;;;;;;;17.45;53.93;95912.22;10334042;28;20034;-33
2023/04/24 06:18:12;;;;;;;0.88;0.47;;;;;;;17.44;53.87;95909.69;10337545;28;20025;-33
2023/04/24 06:23:14;;;;;;;1.20;0.55;;;;;;;17.43;53.27;95926.59;10335204;28;20064;-33
2023/04/24 06:28:14;;;;;;;0.70;0.50;;;;;;;17.44;53.88;95912.22;10354454;28;20128;-32
2023/04/24 06:33:16;;;;;;;4.67;0.63;;;;;;;17.45;54.17;95926.56;10340342;28;20042;-33
2023/04/24 06:38:16;;;;;;;1.60;0.75;;;;;;;17.60;60.36;95931.50;10351804;28;20289;-33
2023/04/24 06:43:17;;;;;;;1.17;0.60;;;;;;;17.66;59.86;95949.16;10345187;28;20022;-32
2023/04/24 06:48:17;;;;;;;4.55;0.60;;;;;;;17.64;58.44;95953.38;10338135;28;20351;-33
2023/04/24 06:53:18;;;;;;;2.13;0.60;;;;;;;17.53;54.81;95957.69;10331068;28;20620;-32
2023/04/24 06:58:18;;;;;;;0.27;0.27;;;;;;;17.47;54.42;95970.38;10330630;28;20041;-32
2023/04/24 07:03:18;;;;;;;2.47;1.10;;;;;;;17.46;54.61;95966.19;10334884;28;20649;-32
2023/04/24 07:08:20;;;;;;;0.70;0.50;;;;;;;17.44;54.43;95980.56;10336654;28;20038;-32
2023/04/24 07:13:20;;;;;;;1.08;0.60;;;;;;;17.44;54.30;95983.06;10336002;28;20035;-34
2023/04/24 07:18:21;;;;;;;1.97;0.37;;;;;;;17.44;54.07;95983.06;10321679;28;20400;-33
2023/04/24 07:23:21;;;;;;;0.73;0.47;;;;;;;17.44;54.29;95988.13;10327074;28;20575;-33
2023/04/24 07:28:22;;;;;;;0.80;0.40;;;;;;;17.43;54.23;95996.59;10323372;28;20551;-32
2023/04/24 07:33:22;;;;;;;1.80;0.50;;;;;;;17.43;54.16;95999.13;10325294;28;20582;-33
2023/04/24 07:38:22;;;;;;;1.40;0.55;;;;;;;17.41;53.92;95998.28;10325177;28;20026;-32
2023/04/24 07:43:23;;;;;;;2.10;0.70;;;;;;;17.57;60.00;96015.03;10325737;28;20038;-33
2023/04/24 07:48:26;;;;;;;2.20;0.80;;;;;;;17.65;60.65;96019.19;10333444;28;20688;-33
2023/04/24 07:53:26;;;;;;;1.88;0.57;;;;;;;17.62;58.92;96023.41;10332241;28;20038;-32
2023/04/24 07:58:26;;;;;;;2.17;0.70;;;;;;;17.54;55.50;96045.41;10332474;28;20046;-33
2023/04/24 08:03:27;;;;;;;1.20;0.77;;;;;;;17.48;54.78;96050.53;10332323;28;20448;-32
2023/04/24 08:08:28;;;;;;;0.60;0.40;;;;;;;17.45;54.41;96045.47;10331405;28;20305;-32
2023/04/24 08:13:28;;;;;;;2.35;0.50;;;;;;;17.44;54.59;96056.47;10332325;28;20125;-32
2023/04/24 08:18:28;;;;;;;0.30;0.30;;;;;;;17.42;54.63;96075.88;10331632;28;20077;-32
2023/04/24 08:23:29;;;;;;;0.95;0.32;;;;;;;17.42;54.68;96068.28;10335649;28;20022;-33
2023/04/24 08:28:30;;;;;;;0.47;0.22;;;;;;;17.40;54.42;96080.13;10331782;28;20030;-33
2023/04/24 08:33:34;;;;;;;0.77;0.40;;;;;;;17.41;54.55;96071.66;10330759;28;20034;-33
2023/04/24 08:38:34;;;;;;;0.50;0.35;;;;;;;17.40;54.13;96075.06;10328170;28;20038;-33
2023/04/24 08:43:36;;;;;;;0.60;0.30;;;;;;;17.41;54.13;96079.25;10329021;28;20097;-33
2023/04/24 08:48:37;;;;;;;1.48;0.52;;;;;;;17.51;58.67;96091.00;10336959;28;21007;-32
2023/04/24 08:53:38;;;;;;;1.73;0.52;;;;;;;17.62;59.91;96100.22;10330563;28;20045;-33
2023/04/24 08:58:39;;;;;;;1.17;0.40;;;;;;;17.62;59.97;96097.69;10328137;28;20041;-33
2023/04/24 09:03:40;;;;;;;0.95;0.40;;;;;;;17.56;57.09;96107.00;10344498;28;20034;-33
2023/04/24 09:08:42;;;;;;;1.15;0.40;;;;;;;17.48;54.81;96117.16;10338236;28;20061;-32
2023/04/24 09:13:43;;;;;;;0.30;0.20;;;;;;;17.44;54.26;96123.09;10348930;28;20053;-32
2023/04/24 09:18:43;;;;;;;3.70;0.38;;;;;;;17.43;54.60;96123.97;10351228;28;20037;-32
2023/04/24 09:23:44;;;;;;;0.53;0.30;;;;;;;17.42;54.55;96134.06;10343303;28;20042;-33
2023/04/24 09:28:46;;;;;;;0.40;0.40;;;;;;;17.40;54.24;96139.13;10340194;28;20034;-32
2023/04/24 09:33:57;;;;;;;0.55;0.30;;;;;;;17.41;54.65;96129.88;10344319;28;20053;-32
2023/04/24 09:39:02;;;;;;;0.22;0.20;;;;;;;17.39;54.43;96129.00;10354309;28;20602;-33
2023/04/24 09:44:15;;;;;;;0.40;0.30;;;;;;;17.40;54.51;96135.78;10336928;28;20040;-32
2023/04/24 09:49:20;;;;;;;1.23;0.40;;;;;;;17.38;54.19;96145.03;10333570;28;20424;-33
2023/04/24 09:54:21;;;;;;;1.17;0.60;;;;;;;17.41;58.28;96155.16;10351016;28;20034;-33
2023/04/24 09:59:21;;;;;;;0.70;0.50;;;;;;;17.57;59.60;96164.38;10349339;28;20069;-33
2023/04/24 10:04:24;;;;;;;1.45;0.70;;;;;;;17.61;60.20;96171.94;10339295;28;20111;-33
2023/04/24 10:09:26;;;;;;;2.13;0.50;;;;;;;17.58;58.23;96173.63;10346360;28;20033;-33
2023/04/24 10:14:26;;;;;;;1.08;0.57;;;;;;;17.48;55.39;96172.00;10330802;28;20444;-32
2023/04/24 10:19:29;;;;;;;1.30;0.37;;;;;;;17.44;54.61;96176.25;10348853;28;20164;-33
2023/04/24 10:24:31;;;;;;;0.40;0.30;;;;;;;17.46;54.35;96168.63;10334208;28;20033;-32
2023/04/24 10:29:32;;;;;;;0.50;0.40;;;;;;;17.49;54.33;96191.41;10341005;28;20564;-33
2023/04/24 10:34:32;;;;;;;0.38;0.28;;;;;;;17.48;54.36;96180.41;10334089;28;20034;-32
2023/04/24 10:39:33;;;;;;;10.82;1.15;;;;;;;17.46;54.34;96193.94;10346564;28;20042;-33
2023/04/24 10:44:36;;;;;;;1.60;0.40;;;;;;;17.46;53.40;96183.81;10335101;28;20030;-33
2023/04/24 10:49:37;;;;;;;1.80;0.40;;;;;;;17.46;53.75;96188.88;10338108;28;20061;-33
2023/04/24 10:54:40;;;;;;;0.70;0.40;;;;;;;17.48;53.91;96194.78;10338896;28;20104;-32
2023/04/24 10:59:40;;;;;;;1.27;0.20;;;;;;;17.46;53.89;96197.31;10347989;28;20352;-32
2023/04/24 11:04:44;;;;;;;2.35;0.60;;;;;;;17.62;59.21;96195.53;10334377;28;20040;-32
2023/04/24 11:09:45;;;;;;;4.78;0.60;;;;;;;17.66;58.83;96187.09;10335410;28;20129;-32
2023/04/24 11:14:59;;;;;;;1.98;0.52;;;;;;;17.65;55.12;96195.53;10335322;28;20495;-33
2023/04/24 11:20:06;;;;;;;4.65;0.40;;;;;;;17.59;54.37;96213.28;10330797;28;20045;-31
2023/04/24 11:25:08;;;;;;;2.70;0.35;;;;;;;17.55;54.27;96220.03;10338006;28;20046;-33
2023/04/24 11:30:10;;;;;;;0.60;0.20;;;;;;;17.54;54.21;96227.63;10353621;28;20026;-32
2023/04/24 11:35:22;;;;;;;0.30;0.30;;;;;;;17.52;54.13;96221.75;10333365;28;20453;-33
2023/04/24 11:40:23;;;;;;;0.80;0.30;;;;;;;17.50;53.93;96225.97;10347135;28;20448;-32
2023/04/24 11:45:28;;;;;;;0.40;0.40;;;;;;;17.49;53.98;96221.78;10354698;28;20105;-33
2023/04/24 11:50:29;;;;;;;1.30;0.50;;;;;;;17.45;54.00;96217.56;10342414;28;20610;-32
2023/04/24 11:55:30;;;;;;;0.35;0.35;;;;;;;17.42;54.10;96213.34;10343798;28;20120;-33
2023/04/24 12:00:34;;;;;;;0.68;0.40;;;;;;;17.44;54.12;96205.75;10348622;28;20037;-32
2023/04/24 12:05:34;;;;;;;1.80;0.30;;;;;;;17.42;54.53;96203.22;10345913;28;20042;-32
2023/04/24 12:10:35;;;;;;;6.13;0.77;;;;;;;17.58;58.42;96214.13;10339322;28;20463;-32
2023/04/24 12:15:39;;;;;;;5.28;0.75;;;;;;;17.69;58.23;96202.25;10338700;28;20034;-33
2023/04/24 12:20:43;;;;;;;4.93;0.50;;;;;;;17.65;56.88;96193.00;10342550;28;20040;-33
2023/04/24 12:25:44;;;;;;;1.27;0.38;;;;;;;17.62;54.01;96203.13;10344528;28;20124;-32
2023/04/24 12:30:48;;;;;;;0.30;0.30;;;;;;;17.61;54.43;96199.78;10354931;28;20424;-34
2023/04/24 12:35:53;;;;;;;0.30;0.20;;;;;;;17.61;54.13;96197.25;10341485;28;20030;-32
2023/04/24 12:41:04;;;;;;;1.65;0.52;;;;;;;17.55;54.20;96183.75;10342275;28;20038;-32
2023/04/24 12:46:05;;;;;;;0.50;0.35;;;;;;;17.60;54.28;96184.59;10356759;28;20041;-32
2023/04/24 12:51:05;;;;;;;2.03;0.40;;;;;;;17.57;54.18;96174.50;10325801;28;20048;-33
2023/04/24 12:56:06;;;;;;;0.70;0.30;;;;;;;17.58;53.99;96178.69;10335959;28;20037;-32
2023/04/24 13:01:06;;;;;;;2.53;0.60;;;;;;;17.61;53.80;96174.47;10338579;28;20033;-32
2023/04/24 13:06:06;;;;;;;2.37;0.50;;;;;;;17.61;53.81;96168.56;10347132;28;20026;-32
2023/04/24 13:11:07;;;;;;;1.00;0.57;;;;;;;17.61;53.76;96178.69;10333238;28;20037;-32
2023/04/24 13:16:07;;;;;;;6.23;1.23;;;;;;;17.64;57.58;96179.50;10329694;28;20034;-32
2023/04/24 13:21:07;;;;;;;6.43;1.07;;;;;;;17.74;59.17;96176.06;10325742;28;20026;-33
2023/04/24 13:26:08;;;;;;;5.20;1.10;;;;;;;17.76;57.71;96171.00;10336231;28;20038;-32
2023/04/24 13:31:09;;;;;;;1.80;0.60;;;;;;;17.67;54.22;96168.53;10354044;28;20805;-33
2023/04/24 13:36:09;;;;;;;2.10;0.57;;;;;;;17.65;54.20;96166.00;10335526;28;20040;-32
2023/04/24 13:41:10;;;;;;;1.13;0.50;;;;;;;17.64;54.17;96159.25;10337447;28;20030;-32
2023/04/24 13:46:10;;;;;;;4.03;0.77;;;;;;;17.65;54.22;96165.16;10335266;28;20448;-33
2023/04/24 13:51:11;;;;;;;2.80;0.63;;;;;;;17.62;54.03;96160.97;10336929;28;20081;-32
2023/04/24 13:56:13;;;;;;;2.67;1.13;;;;;;;17.62;54.21;96160.09;10326100;28;20027;-33
2023/04/24 14:01:15;;;;;;;4.40;0.85;;;;;;;17.61;53.91;96156.75;10341579;28;20281;-33
2023/04/24 14:06:15;;;;;;;3.53;0.65;;;;;;;17.64;53.86;96158.41;10344346;28;20062;-32
2023/04/24 14:11:16;;;;;;;4.07;0.93;;;;;;;17.64;53.99;96149.13;10342211;28;20034;-33
2023/04/24 14:16:16;;;;;;;2.78;0.65;;;;;;;17.67;53.85;96154.16;10341220;28;20062;-32
2023/04/24 14:21:17;;;;;;;2.40;0.50;;;;;;;17.68;54.17;96139.81;10331022;28;20485;-33
2023/04/24 14:26:17;;;;;;;6.53;1.37;;;;;;;17.77;57.68;96144.81;10329922;28;20296;-33
2023/04/24 14:31:17;;;;;;;7.20;1.17;;;;;;;17.85;58.64;96145.63;10340734;28;20040;-32
2023/04/24 14:36:18;;;;;;;5.33;0.70;;;;;;;17.77;54.79;96165.09;10338321;28;20089;-33
2023/04/24 14:41:18;;;;;;;2.25;0.90;;;;;;;17.72;54.14;96154.13;10331382;28;20034;-33
2023/04/24 14:46:20;;;;;;;7.47;0.80;;;;;;;17.72;54.18;96161.72;10337622;28;20105;-31
2023/04/24 14:51:20;;;;;;;3.53;1.00;;;;;;;17.72;54.57;96161.72;10346086;28;20038;-33
2023/04/24 14:56:20;;;;;;;5.47;0.90;;;;;;;17.72;54.75;96157.50;10357964;28;20040;-33
2023/04/24 15:01:21;;;;;;;3.23;0.80;;;;;;;17.73;54.88;96160.91;10340663;28;20029;-32
2023/04/24 15:06:21;;;;;;;8.00;1.70;;;;;;;17.71;55.10;96160.03;10347811;28;20044;-32
2023/04/24 15:11:22;;;;;;;8.90;1.20;;;;;;;17.72;54.31;96161.72;10341496;28;20053;-33
2023/04/24 15:16:24;;;;;;;3.87;1.17;;;;;;;17.72;54.14;96151.59;10353135;28;20129;-32
2023/04/24 15:21:24;;;;;;;6.25;1.52;;;;;;;17.74;54.21;96160.06;10334717;28;20034;-32
2023/04/24 15:26:25;;;;;;;6.85;1.02;;;;;;;17.77;54.45;96154.97;10339131;28;20038;-32
2023/04/24 15:31:25;;;;;;;16.20;1.83;;;;;;;17.84;58.10;96159.13;10346767;28;20085;-31
2023/04/24 15:36:26;;;;;;;22.58;2.45;;;;;;;17.93;60.30;96159.91;10346154;28;20037;-33
2023/04/24 15:41:26;;;;;;;6.93;1.63;;;;;;;17.97;57.13;96153.13;10341305;28;20530;-33
2023/04/24 15:46:26;;;;;;;9.93;1.20;;;;;;;17.90;55.18;96146.44;10337454;28;20293;-32
2023/04/24 15:51:27;;;;;;;10.23;1.20;;;;;;;17.83;55.35;96144.81;10303769;28;20044;-33
2023/04/24 15:56:27;;;;;;;5.57;1.50;;;;;;;17.81;55.02;96143.94;10311567;28;20300;-32
2023/04/24 16:01:28;;;;;;;9.80;1.27;;;;;;;17.76;55.75;96150.75;10357633;28;20046;-32
2023/04/24 16:06:29;;;;;;;12.93;1.42;;;;;;;17.80;55.00;96153.25;10341975;28;20094;-33
2023/04/24 16:11:31;;;;;;;9.15;1.05;;;;;;;17.80;55.09;96157.47;10346206;28;20513;-32
2023/04/24 16:16:32;;;;;;;10.10;1.10;;;;;;;17.77;54.58;96162.56;10352741;28;20046;-32
2023/04/24 16:21:32;;;;;;;20.52;3.65;;;;;;;17.79;54.91;96159.16;10345307;28;20113;-33
2023/04/24 16:26:33;;;;;;;9.85;1.20;;;;;;;17.79;54.83;96168.44;10350284;28;20492;-32
2023/04/24 16:31:33;;;;;;;12.27;1.50;;;;;;;17.76;55.61;96163.41;10344613;28;20034;-33
2023/04/24 16:36:36;;;;;;;10.43;1.90;;;;;;;17.82;58.57;96164.19;10343305;28;20277;-33
2023/04/24 16:41:37;;;;;;;12.20;2.20;;;;;;;17.92;59.63;96150.63;10343474;28;20022;-33
2023/04/24 16:46:37;;;;;;;15.90;2.87;;;;;;;17.96;59.02;96153.97;10347796;28;20045;-31
2023/04/24 16:51:37;;;;;;;5.53;1.20;;;;;;;17.82;55.54;96159.13;10339086;28;20027;-33
2023/04/24 16:56:38;;;;;;;9.00;1.33;;;;;;;17.79;54.77;96160.84;10335168;28;20373;-33
2023/04/24 17:01:39;;;;;;;9.65;1.27;;;;;;;17.76;55.64;96155.81;10333303;28;20304;-32
2023/04/24 17:06:39;;;;;;;4.22;1.42;;;;;;;17.72;54.69;96154.97;10348782;28;20065;-33
2023/04/24 17:11:41;;;;;;;7.32;1.10;;;;;;;17.70;54.42;96155.84;10343308;28;20034;-33
2023/04/24 17:16:41;;;;;;;7.95;1.73;;;;;;;17.72;54.57;96159.19;10330560;28;20041;-32
2023/04/24 17:21:42;;;;;;;5.63;1.00;;;;;;;17.74;54.61;96155.00;10348597;28;20045;-33
2023/04/24 17:26:42;;;;;;;8.57;1.33;;;;;;;17.73;53.97;96154.13;10335203;28;20386;-33
2023/04/24 17:31:42;;;;;;;6.28;1.23;;;;;;;17.70;54.16;96155.84;10320170;28;20576;-33
2023/04/24 17:36:43;;;;;;;3.00;0.90;;;;;;;17.77;54.23;96160.03;10289120;28;20101;-32
2023/04/24 17:41:43;;;;;;;5.27;1.10;;;;;;;17.77;54.03;96160.88;10314327;28;20030;-32
2023/04/24 17:46:43;;;;;;;13.47;1.80;;;;;;;17.85;56.70;96149.00;10347603;28;20042;-32
2023/04/24 17:51:44;;;;;;;13.27;2.20;;;;;;;17.94;59.27;96164.13;10338396;28;20035;-33
2023/04/24 17:56:44;;;;;;;8.43;1.38;;;;;;;17.88;54.84;96164.16;10325353;28;20185;-33
2023/04/24 18:01:45;;;;;;;2.70;1.10;;;;;;;17.88;54.35;96169.22;10331144;28;20404;-33
2023/04/24 18:06:45;;;;;;;3.67;1.40;;;;;;;17.83;54.21;96163.34;10320074;28;20038;-33
2023/04/24 18:11:47;;;;;;;2.90;0.93;;;;;;;17.89;54.28;96165.84;10321717;28;20514;-32
2023/04/24 18:16:47;;;;;;;7.28;1.25;;;;;;;17.87;53.98;96171.78;10325016;28;20041;-32
2023/04/24 18:21:47;;;;;;;4.80;1.42;;;;;;;17.85;54.44;96173.47;10331577;28;20041;-34
2023/04/24 18:26:48;;;;;;;3.07;1.17;;;;;;;17.85;53.78;96163.34;10334254;28;20504;-33
2023/04/24 18:31:48;;;;;;;4.70;0.95;;;;;;;17.85;54.51;96173.47;10349164;28;20296;-32
2023/04/24 18:36:49;;;;;;;1.63;0.80;;;;;;;17.83;53.97;96172.66;10346546;28;20034;-33
2023/04/24 18:41:49;;;;;;;4.07;0.82;;;;;;;17.81;54.14;96177.72;10339682;28;20095;-32
2023/04/24 18:46:50;;;;;;;4.90;1.07;;;;;;;17.82;53.97;96186.16;10334063;28;20133;-33
2023/04/24 18:51:52;;;;;;;10.27;1.67;;;;;;;17.89;56.59;96191.16;10332418;28;20870;-33
2023/04/24 18:56:52;;;;;;;8.65;1.55;;;;;;;17.97;60.69;96191.13;10330383;28;20121;-32
2023/04/24 19:01:52;;;;;;;6.78;1.48;;;;;;;17.93;56.77;96185.22;10344752;28;20597;-33
2023/04/24 19:06:53;;;;;;;11.67;2.20;;;;;;;17.90;54.66;96192.03;10339114;28;20030;-33
2023/04/24 19:11:53;;;;;;;3.03;1.10;;;;;;;17.87;54.46;96199.63;10342380;28;20516;-32
2023/04/24 19:16:54;;;;;;;3.17;0.93;;;;;;;17.79;53.80;96197.16;10335000;28;20129;-33
2023/04/24 19:21:54;;;;;;;1.83;0.90;;;;;;;17.73;53.46;96194.63;10326427;28;20041;-33
2023/04/24 19:26:55;;;;;;;2.03;0.73;;;;;;;17.70;52.41;96201.41;10333974;28;20033;-33
2023/04/24 19:31:57;;;;;;;2.05;0.80;;;;;;;17.68;51.98;96205.66;10333848;28;20062;-33
2023/04/24 19:36:58;;;;;;;3.67;1.55;;;;;;;17.66;52.59;96199.75;10339709;28;20518;-33
2023/04/24 19:41:59;;;;;;;2.35;0.85;;;;;;;17.67;51.73;96209.03;10346359;28;20040;-33
2023/04/24 19:47:00;;;;;;;1.50;0.73;;;;;;;17.62;51.67;96205.66;10348780;28;20105;-33
2023/04/24 19:52:00;;;;;;;1.83;0.63;;;;;;;17.64;51.12;96209.03;10348456;28;20823;-32
2023/04/24 19:57:01;;;;;;;1.33;0.50;;;;;;;17.64;51.04;96203.97;10345308;28;20297;-32
2023/04/24 20:02:01;;;;;;;1.43;1.00;;;;;;;17.74;52.80;96198.03;10348454;28;20037;-33
2023/04/24 20:07:01;;;;;;;4.20;1.30;;;;;;;17.82;56.03;96203.88;10339162;28;20317;-32
2023/04/24 20:12:02;;;;;;;3.47;1.20;;;;;;;17.73;51.11;96199.69;10336021;28;20096;-33
2023/04/24 20:17:02;;;;;;;1.67;0.95;;;;;;;17.63;50.49;96193.00;10335380;28;20121;-33
2023/04/24 20:22:03;;;;;;;3.60;1.25;;;;;;;17.62;50.53;96185.41;10336028;28;20046;-32
2023/04/24 20:27:03;;;;;;;1.17;0.80;;;;;;;17.61;50.25;96188.81;10347567;28;20407;-33
2023/04/24 20:32:04;;;;;;;2.47;1.02;;;;;;;17.57;50.19;96180.38;10342049;28;20033;-33
2023/04/24 20:37:05;;;;;;;1.30;0.70;;;;;;;17.56;49.75;96176.16;10349051;28;20164;-33
2023/04/24 20:42:06;;;;;;;0.98;0.85;;;;;;;17.54;49.98;96182.94;10342238;28;20057;-32
2023/04/24 20:47:06;;;;;;;2.35;1.08;;;;;;;17.52;49.77;96183.78;10350604;28;20057;-33
2023/04/24 20:52:07;;;;;;;0.85;0.75;;;;;;;17.52;49.53;96176.19;10345906;28;20054;-33
2023/04/24 20:57:08;;;;;;;2.17;0.98;;;;;;;17.51;49.95;96165.22;10346178;28;20125;-32
2023/04/24 21:02:08;;;;;;;1.38;1.10;;;;;;;17.50;49.80;96163.53;10354148;28;20038;-32
2023/04/24 21:07:10;;;;;;;2.20;1.30;;;;;;;17.52;49.56;96166.06;10353348;28;20044;-32
2023/04/24 21:12:10;;;;;;;4.28;1.10;;;;;;;17.66;52.73;96166.84;10335100;28;20044;-32
2023/04/24 21:17:11;;;;;;;2.30;1.07;;;;;;;17.74;55.59;96160.06;10356128;28;20044;-32
2023/04/24 21:22:11;;;;;;;1.23;0.80;;;;;;;17.60;50.14;96157.59;10350305;28;20030;-33
2023/04/24 21:27:12;;;;;;;1.10;0.70;;;;;;;17.54;49.54;96156.78;10339733;28;20069;-32
2023/04/24 21:32:12;;;;;;;1.00;0.80;;;;;;;17.50;49.81;96150.88;10339667;28;20061;-33
2023/04/24 21:37:15;;;;;;;1.97;1.07;;;;;;;17.47;49.41;96150.06;10354171;28;20030;-32
2023/04/24 21:42:16;;;;;;;2.55;1.10;;;;;;;17.45;49.24;96141.63;10344912;28;20397;-33
2023/04/24 21:47:16;;;;;;;1.50;0.90;;;;;;;17.43;49.49;96133.22;10328250;28;20046;-32
2023/04/24 21:52:19;;;;;;;1.53;1.00;;;;;;;17.41;49.09;96140.00;10345442;28;20815;-34
2023/04/24 21:57:19;;;;;;;2.03;0.82;;;;;;;17.38;49.18;96132.38;10353116;28;20500;-33
2023/04/24 22:02:20;;;;;;;2.85;1.05;;;;;;;17.38;48.85;96120.59;10352776;28;20029;-33
2023/04/24 22:07:21;;;;;;;1.38;0.93;;;;;;;17.38;48.98;96122.28;10348000;28;20027;-32
2023/04/24 22:12:21;;;;;;;1.35;1.08;;;;;;;17.38;48.66;96112.16;10338134;28;20041;-32
2023/04/24 22:17:23;;;;;;;1.10;0.82;;;;;;;17.43;48.69;96123.09;10347184;28;20033;-32
2023/04/24 22:22:23;;;;;;;1.70;1.13;;;;;;;17.56;51.16;96128.09;10333190;28;20390;-32
2023/04/24 22:27:23;;;;;;;3.28;1.40;;;;;;;17.61;49.96;96133.13;10342367;28;20029;-32
2023/04/24 22:32:24;;;;;;;1.03;0.93;;;;;;;17.48;48.15;96136.59;10341556;28;20404;-33
2023/04/24 22:37:24;;;;;;;2.65;1.20;;;;;;;17.43;48.29;96130.69;10348539;28;20497;-32
2023/04/24 22:42:25;;;;;;;3.17;1.00;;;;;;;17.39;48.42;96129.00;10357294;28;20029;-33
2023/04/24 22:47:25;;;;;;;3.37;1.40;;;;;;;17.37;48.40;96128.19;10343843;28;20512;-33
2023/04/24 22:52:27;;;;;;;2.50;1.07;;;;;;;17.37;48.16;96121.44;10333319;28;20034;-32
2023/04/24 22:57:28;;;;;;;1.95;1.00;;;;;;;17.36;48.18;96113.84;10340251;28;20755;-32
2023/04/24 23:02:29;;;;;;;22.95;1.98;;;;;;;17.34;48.21;96113.00;10353282;28;20030;-32
2023/04/24 23:07:29;;;;;;;2.50;1.00;;;;;;;17.34;47.98;96113.00;10342651;28;20038;-33
2023/04/24 23:12:30;;;;;;;2.03;1.23;;;;;;;17.33;47.89;96109.63;10350845;28;20411;-33
2023/04/24 23:17:30;;;;;;;3.70;1.33;;;;;;;17.33;48.10;96111.31;10350137;28;20400;-32
2023/04/24 23:22:31;;;;;;;1.63;1.10;;;;;;;17.33;47.87;96104.56;10344309;28;20517;-33